Latest Weather Observations for Goulburn Airport

IDN60801

Issued at 5:52 pm EST Tuesday 26 May 2020 (issued every 10 minutes, with the page automatically refreshed every 10 minutes)

About weather observations | Map of weather stations | Latest weather observations for NSW | Other Formats
Station Details ID: 070330 Name: GOULBURN AIRPORT AWS Lat: -34.81 Lon: 149.73 Height: 640.0 m
Data from the previous 72 hours. | See also: Recent months at Goulburn Airport
Date/Time
EST
Temp
°C
App
Temp
°C
Dew
Point
°C
Rel
Hum
%
Delta-T
°C
Wind Press
QNH
hPa
Press
MSL
hPa
Rain since
9am
mm
Dir  Spd
km/h
Gust
km/h
Spd
kts
Gust
kts
26/05:30pm 10.1 7.3 8.4 89 0.9 SE 13 17 7 9 1024.1 1024.3 0.0
26/05:00pm 10.1 7.2 8.2 88 1.0 SE 13 22 7 12 1024.0 1024.2 0.0
26/04:30pm 11.0 8.2 8.4 84 1.3 SE 13 15 7 8 1023.9 1024.1 0.0
26/04:00pm 11.7 7.1 8.0 78 1.9 SE 22 35 12 19 1023.7 1023.9 0.0
26/03:30pm 12.8 8.4 7.5 70 2.7 SE 20 28 11 15 1023.1 1023.4 0.0
26/03:00pm 13.0 8.6 7.2 68 2.9 SE 20 28 11 15 1023.0 1023.3 0.0
26/02:30pm 12.9 7.7 7.1 68 2.9 SE 24 33 13 18 1023.0 1023.3 0.0
26/02:00pm 13.2 7.3 7.6 69 2.8 SSE 28 35 15 19 1023.0 1023.3 0.0
26/01:30pm 13.9 8.6 8.5 70 2.8 SE 26 35 14 19 1023.0 1023.3 0.0
26/01:00pm 13.5 7.9 7.3 66 3.1 SE 26 33 14 18 1023.8 1024.0 0.0
26/12:30pm 12.8 7.6 8.7 76 2.1 SE 26 33 14 18 1024.2 1024.4 0.0
26/12:00pm 13.4 7.4 8.5 72 2.5 SE 30 39 16 21 1024.3 1024.6 0.0
26/11:30am 12.7 7.8 8.4 75 2.2 SE 24 35 13 19 1025.0 1025.2 0.0
26/11:00am 12.2 7.7 9.9 86 1.2 SSE 24 33 13 18 1025.2 1025.4 0.0
26/10:30am 12.1 7.0 10.7 91 0.8 SSE 28 35 15 19 1025.4 1025.6 0.0
26/10:00am 11.3 6.7 11.0 98 0.2 SSE 26 37 14 20 1025.4 1025.6 0.0
26/09:30am 10.2 6.5 10.1 99 0.1 SSE 20 30 11 16 1025.3 1025.5 0.0
26/09:24am 10.0 6.4 9.9 99 0.1 SSE 19 24 10 13 1025.3 1025.5 0.0
26/09:09am 10.0 6.4 9.9 99 0.1 SSE 19 22 10 12 1025.1 1025.3 0.0
26/09:00am 9.8 6.5 9.7 99 0.1 SSE 17 22 9 12 1024.9 1025.1 0.2
26/08:52am 9.7 6.4 9.6 99 0.1 SSE 17 20 9 11 1024.9 1025.1 0.2
26/08:40am 9.6 6.7 9.5 99 0.1 SSE 15 19 8 10 1024.9 1025.1 0.2
26/08:30am 9.3 6.3 9.2 99 0.1 SSE 15 19 8 10 1024.7 1025.0 0.2
26/08:00am 8.8 5.7 8.7 99 0.1 SSE 15 17 8 9 1024.3 1024.6 0.0
26/07:52am 8.8 6.0 8.7 99 0.1 SSE 13 17 7 9 1024.3 1024.6 0.0
26/07:40am 8.7 5.9 8.6 99 0.1 S 13 17 7 9 1024.3 1024.6 0.0
26/07:39am 8.6 5.8 8.5 99 0.1 S 13 17 7 9 1024.3 1024.6 0.0
26/07:30am 8.6 5.8 8.5 99 0.1 S 13 17 7 9 1024.2 1024.4 0.0
26/07:09am 8.2 5.7 8.1 99 0.0 S 11 15 6 8 1024.1 1024.3 0.0
26/07:03am 8.1 5.9 8.0 99 0.0 S 9 15 5 8 1024.0 1024.2 0.0
26/07:00am 8.1 5.9 8.0 99 0.0 S 9 11 5 6 1024.0 1024.2 0.0
26/06:30am 7.8 5.2 7.7 99 0.0 S 11 13 6 7 1023.8 1024.0 0.0
26/06:04am 7.8 5.2 7.7 99 0.0 S 11 13 6 7 1023.8 1024.0 0.0
26/06:00am 7.8 5.2 7.7 99 0.0 S 11 13 6 7 1023.7 1023.9 0.0
26/05:30am 7.5 5.6 7.4 99 0.0 SSW 7 9 4 5 1023.6 1023.8 0.0
26/05:00am 7.6 4.6 7.5 99 0.0 S 13 15 7 8 1023.5 1023.7 0.0
26/04:30am 7.6 4.1 7.2 97 0.2 S 15 17 8 9 1023.6 1023.8 0.0
26/04:00am 7.5 4.7 6.9 96 0.3 SSW 11 11 6 6 1023.6 1023.8 0.0
26/03:30am 7.8 4.9 6.7 93 0.5 S 11 15 6 8 1023.7 1023.9 0.0
26/03:00am 7.9 5.4 6.7 92 0.6 S 9 15 5 8 1023.8 1024.0 0.0
26/02:30am 7.7 5.2 6.5 92 0.6 SSW 9 13 5 7 1023.8 1024.0 0.0
26/02:03am 7.9 4.2 6.5 91 0.7 S 15 19 8 10 1023.6 1023.8 0.0
26/02:00am 7.9 4.2 6.5 91 0.7 S 15 19 8 10 1023.6 1023.8 0.0
26/01:30am 7.6 3.5 6.1 90 0.7 S 17 22 9 12 1023.7 1023.9 0.0
26/01:00am 6.3 3.4 4.9 91 0.6 S 9 11 5 6 1023.7 1023.9 0.0
26/12:57am 6.3 3.4 4.9 91 0.6 S 9 11 5 6 1023.7 1023.9 0.0
26/12:31am 6.9 3.8 5.7 92 0.6 SSW 11 13 6 7 1023.8 1024.0 0.0
26/12:30am 6.9 3.8 5.7 92 0.6 SSW 11 13 6 7 1023.8 1024.0 0.0
26/12:00am 7.3 4.2 5.6 89 0.8 S 11 13 6 7 1023.7 1023.9 0.0
 
Date/Time
EST
Temp
°C
App
Temp
°C
Dew
Point
°C
Rel
Hum
%
Delta-T
°C
Wind Press
QNH
hPa
Press
MSL
hPa
Rain since
9am
mm
Dir  Spd
km/h
Gust
km/h
Spd
kts
Gust
kts
25/11:30pm 8.3 5.4 6.4 88 0.9 S 11 13 6 7 1023.8 1024.0 0.0
25/11:23pm 8.5 5.2 6.5 87 1.0 S 13 17 7 9 1023.9 1024.1 0.0
25/11:00pm 8.7 4.7 6.5 86 1.1 S 17 22 9 12 1023.8 1024.0 0.0
25/10:30pm 8.7 4.2 6.8 88 0.9 S 20 26 11 14 1023.9 1024.1 0.0
25/10:00pm 8.6 4.8 7.4 92 0.6 S 17 20 9 11 1024.0 1024.2 0.0
25/09:30pm 8.8 4.6 7.3 90 0.7 S 19 24 10 13 1023.9 1024.1 0.0
25/09:00pm 8.9 4.1 7.4 90 0.7 S 22 28 12 15 1023.6 1023.8 0.0
25/08:30pm 9.0 4.2 7.5 90 0.7 S 22 30 12 16 1023.1 1023.4 0.0
25/08:00pm 9.4 4.6 7.2 86 1.1 S 22 32 12 17 1023.1 1023.4 0.0
25/07:30pm 9.4 5.2 7.3 87 1.0 S 19 26 10 14 1022.7 1022.9 0.0
25/07:00pm 9.5 5.6 7.3 86 1.1 S 17 26 9 14 1022.3 1022.5 0.0
25/06:30pm 9.4 5.5 7.2 86 1.1 S 17 20 9 11 1022.2 1022.4 0.0
25/06:00pm 9.5 5.2 6.9 84 1.3 SSE 19 26 10 14 1021.8 1022.0 0.0
25/05:37pm 9.8 5.9 7.2 84 1.3 S 17 24 9 13 1021.7 1021.9 0.0
25/05:30pm 9.9 5.6 7.2 83 1.3 S 19 24 10 13 1021.6 1021.7 0.0
25/05:00pm 10.2 5.3 7.1 81 1.5 S 22 30 12 16 1021.2 1021.4 0.0
25/04:30pm 10.5 5.6 7.0 79 1.7 S 22 32 12 17 1021.1 1021.3 0.0
25/04:00pm 10.7 5.4 6.8 77 1.9 S 24 32 13 17 1020.8 1021.0 0.0
25/03:30pm 11.1 5.9 7.2 77 1.9 S 24 32 13 17 1020.7 1020.9 0.0
25/03:00pm 11.2 5.6 7.1 76 2.0 SSE 26 32 14 17 1020.8 1021.0 0.0
25/02:30pm 11.2 4.8 7.1 76 2.0 S 30 35 16 19 1020.5 1020.7 0.0
25/02:00pm 11.6 5.2 6.9 73 2.3 SSE 30 39 16 21 1020.2 1020.3 0.0
25/01:30pm 11.9 6.7 7.2 73 2.3 S 24 33 13 18 1020.1 1020.2 0.0
25/01:00pm 11.8 5.8 6.9 72 2.4 S 28 37 15 20 1020.1 1020.2 0.0
25/12:30pm 11.6 5.9 6.7 72 2.4 S 26 33 14 18 1020.3 1020.4 0.0
25/12:00pm 11.8 5.7 6.5 70 2.6 SSE 28 39 15 21 1020.4 1020.6 0.0
25/11:30am 11.9 5.1 6.8 71 2.5 S 32 37 17 20 1020.5 1020.7 0.0
25/11:00am 11.2 4.6 5.9 70 2.5 S 30 37 16 20 1020.7 1020.9 0.0
25/10:30am 11.0 4.4 6.0 71 2.4 S 30 37 16 20 1020.8 1021.0 0.0
25/10:00am 10.2 3.9 5.8 74 2.1 S 28 37 15 20 1020.8 1021.0 0.0
25/09:30am 9.6 3.3 5.6 76 1.9 S 28 37 15 20 1020.4 1020.6 0.0
25/09:00am 9.2 4.1 5.9 80 1.6 S 22 30 12 16 1020.4 1020.6 0.0
25/08:30am 8.4 3.8 5.7 83 1.3 S 19 26 10 14 1020.2 1020.3 0.0
25/08:00am 7.3 3.2 6.1 92 0.6 S 17 24 9 13 1019.7 1019.9 0.0
25/07:30am 4.7 2.0 3.8 94 0.4 S 7 9 4 5 1019.6 1019.8 0.0
25/07:00am 4.2 1.9 2.9 91 0.5 S 4 9 2 5 1019.0 1019.2 0.0
25/06:30am 5.7 3.2 4.5 92 0.5 S 7 11 4 6 1018.9 1019.0 0.0
25/06:00am 6.2 1.8 5.0 92 0.5 SSW 17 20 9 11 1018.4 1018.5 0.0
25/05:30am 6.3 2.2 6.2 99 0.0 S 17 20 9 11 1018.0 1018.2 0.0
25/05:00am 4.2 2.9 4.1 99 0.0 CALM 0 2 0 1 1018.0 1018.2 0.0
25/04:30am 3.8 2.0 3.7 99 0.0 SW 2 7 1 4 1018.1 1018.3 0.0
25/04:00am 2.5 0.9 2.4 99 0.0 CALM 0 7 0 4 1018.3 1018.4 0.0
25/03:30am 1.7 -0.4 1.6 99 0.0 SW 2 7 1 4 1018.0 1018.2 0.0
25/03:00am 0.7 -1.2 0.6 99 0.0 CALM 0 4 0 2 1018.0 1018.2 0.0
25/02:30am 0.5 -2.6 0.2 98 0.1 SW 6 7 3 4 1017.9 1018.1 0.0
25/02:00am -0.3 -2.4 -0.6 98 0.1 CALM 0 0 0 0 1018.0 1018.2 0.0
25/01:30am 0.6 -1.3 0.5 99 0.0 CALM 0 0 0 0 1018.0 1018.2 0.0
25/01:00am 0.1 -1.9 -0.3 97 0.2 CALM 0 0 0 0 1018.0 1018.2 0.0
25/12:30am 0.7 -1.2 0.3 97 0.2 CALM 0 0 0 0 1018.3 1018.4 0.0
25/12:00am 1.2 -1.1 0.6 96 0.2 SW 2 7 1 4 1018.3 1018.4 0.0
 
Date/Time
EST
Temp
°C
App
Temp
°C
Dew
Point
°C
Rel
Hum
%
Delta-T
°C
Wind Press
QNH
hPa
Press
MSL
hPa
Rain since
9am
mm
Dir  Spd
km/h
Gust
km/h
Spd
kts
Gust
kts
24/11:30pm 2.1 0.3 1.4 95 0.3 CALM 0 0 0 0 1018.3 1018.4 0.0
24/11:00pm 2.8 1.1 2.1 95 0.3 CALM 0 0 0 0 1018.3 1018.4 0.0
24/10:30pm 3.6 2.0 2.4 92 0.5 CALM 0 0 0 0 1018.4 1018.5 0.0
24/10:00pm 4.2 2.0 3.2 93 0.4 SW 4 7 2 4 1018.3 1018.4 0.0
24/09:30pm 3.9 2.3 2.6 91 0.5 CALM 0 0 0 0 1018.3 1018.4 0.0
24/09:00pm 4.3 2.6 2.0 85 1.0 CALM 0 0 0 0 1017.8 1018.0 0.0
24/08:30pm 6.0 4.3 3.8 86 1.0 SW 2 7 1 4 1017.8 1018.0 0.0
24/08:00pm 5.9 4.6 4.1 88 0.8 CALM 0 0 0 0 1017.6 1017.8 0.0
24/07:30pm 5.8 1.6 3.8 87 0.9 SSW 15 17 8 9 1017.4 1017.5 0.0
24/07:00pm 5.3 2.4 2.8 84 1.1 SW 7 15 4 8 1017.2 1017.3 0.0
24/06:30pm 5.2 1.6 2.7 84 1.1 SW 11 13 6 7 1016.9 1017.0 0.0
24/06:00pm 6.0 1.6 2.8 80 1.4 WSW 15 17 8 9 1016.6 1016.7 0.0
24/05:30pm 7.0 1.8 2.3 72 2.0 S 19 24 10 13 1016.3 1016.5 0.0
24/05:00pm 9.6 3.6 3.1 64 2.9 S 24 30 13 16 1016.0 1016.1 0.0
24/04:30pm 10.0 4.1 4.0 66 2.7 S 24 30 13 16 1015.6 1015.7 0.0
24/04:00pm 12.4 6.5 3.9 56 4.0 S 24 32 13 17 1014.9 1014.9 0.0
24/03:30pm 12.5 6.9 3.7 55 4.1 SSE 22 28 12 15 1014.6 1014.7 0.0
24/03:00pm 13.4 7.0 3.2 50 4.7 S 26 35 14 19 1014.3 1014.4 0.0
24/02:30pm 13.7 7.1 4.0 52 4.6 S 28 35 15 19 1014.2 1014.3 0.0
24/02:00pm 13.6 7.1 4.7 55 4.3 S 28 37 15 20 1014.1 1014.2 0.0
24/01:30pm 14.0 7.2 4.9 54 4.4 S 30 37 16 20 1014.0 1014.1 0.0
24/01:00pm 14.1 6.6 4.4 52 4.6 S 33 44 18 24 1014.2 1014.3 0.0
24/12:30pm 13.5 6.6 4.6 55 4.3 S 30 44 16 24 1014.4 1014.5 0.0
24/12:00pm 13.0 6.7 5.9 62 3.5 S 28 39 15 21 1014.6 1014.7 0.0
24/11:30am 12.8 5.6 5.9 63 3.4 S 33 41 18 22 1015.1 1015.2 0.0
24/11:00am 11.9 5.6 5.5 65 3.1 S 28 37 15 20 1015.2 1015.3 0.0
24/10:30am 11.5 4.5 6.0 69 2.7 S 32 39 17 21 1015.2 1015.3 0.0
24/10:00am 10.9 6.6 7.2 78 1.8 SSW 19 26 10 14 1015.2 1015.3 0.0
24/09:30am 10.0 8.0 7.3 83 1.3 SSW 7 13 4 7 1015.1 1015.2 0.0
24/09:00am 8.4 6.5 6.5 88 0.9 N 6 7 3 4 1014.9 1014.9 4.8
24/08:30am 7.1 6.4 7.0 99 0.0 CALM 0 0 0 0 1014.6 1014.7 4.8
24/08:00am 6.3 5.4 6.2 99 0.0 CALM 0 0 0 0 1014.2 1014.3 4.8
24/07:30am 5.4 3.0 5.3 99 0.0 N 7 9 4 5 1014.0 1014.1 4.8
24/07:00am 4.3 1.7 4.2 99 0.0 N 7 9 4 5 1013.6 1013.6 4.8
24/06:30am 2.9 -0.3 2.8 99 0.0 N 9 13 5 7 1013.4 1013.4 4.8
24/06:00am 2.6 0.9 2.0 96 0.2 CALM 0 0 0 0 1013.0 1013.1 4.8
24/05:30am 2.8 1.1 2.1 95 0.3 CALM 0 0 0 0 1012.8 1012.9 4.8
24/05:00am 3.0 0.0 2.0 93 0.4 W 7 11 4 6 1012.4 1012.5 4.8
24/04:30am 3.4 0.5 2.5 94 0.4 W 7 9 4 5 1012.5 1012.6 4.8
24/04:00am 3.2 -0.6 2.0 92 0.5 WSW 11 11 6 6 1012.4 1012.5 4.8
24/03:30am 4.2 1.0 2.9 91 0.6 NW 9 11 5 6 1012.2 1012.2 4.8
24/03:00am 5.1 1.9 3.1 87 0.9 WSW 9 11 5 6 1012.1 1012.1 4.8
24/02:30am 6.4 3.4 4.1 85 1.0 WSW 9 11 5 6 1012.1 1012.1 4.8
24/02:00am 6.7 3.8 4.4 85 1.0 W 9 13 5 7 1012.3 1012.4 4.8
24/01:30am 7.3 4.0 4.8 84 1.1 WSW 11 15 6 8 1012.3 1012.4 4.8
24/01:00am 7.5 3.1 5.0 84 1.1 WSW 17 20 9 11 1012.2 1012.2 4.8
24/12:30am 7.6 3.3 5.2 85 1.1 SW 17 20 9 11 1012.1 1012.1 4.8
24/12:00am 7.5 4.0 5.3 86 1.0 WSW 13 17 7 9 1012.3 1012.4 4.8
 
Date/Time
EST
Temp
°C
App
Temp
°C
Dew
Point
°C
Rel
Hum
%
Delta-T
°C
Wind Press
QNH
hPa
Press
MSL
hPa
Rain since
9am
mm
Dir  Spd
km/h
Gust
km/h
Spd
kts
Gust
kts
23/11:30pm 7.5 4.0 5.3 86 1.0 WSW 13 17 7 9 1012.2 1012.2 4.8
23/11:00pm 7.6 3.7 5.2 85 1.1 WSW 15 19 8 10 1012.1 1012.1 4.8
23/10:30pm 7.8 3.9 5.4 85 1.1 WSW 15 20 8 11 1012.1 1012.1 4.6
23/10:00pm 8.0 4.1 5.5 84 1.2 WSW 15 19 8 10 1012.0 1012.0 4.4
23/09:30pm 8.1 3.9 5.6 84 1.2 WSW 17 20 9 11 1012.0 1012.0 4.4
23/09:00pm 8.2 4.4 6.0 86 1.0 WSW 15 19 8 10 1011.8 1011.8 4.4
23/08:30pm 8.3 4.2 6.4 88 0.9 WSW 17 20 9 11 1011.7 1011.7 4.4
23/08:00pm 8.3 4.4 6.9 91 0.7 WSW 17 22 9 12 1011.4 1011.5 4.4
23/07:30pm 8.3 4.0 7.1 92 0.6 WSW 19 26 10 14 1011.2 1011.3 4.4
23/07:00pm 8.1 3.7 7.3 95 0.4 W 20 28 11 15 1011.0 1011.1 4.2
23/06:30pm 8.2 5.9 7.3 94 0.4 W 9 15 5 8 1010.9 1010.9 4.0
23/06:00pm 8.2 3.9 7.1 93 0.5 W 19 24 10 13 1010.7 1010.7 4.0

Other formats

Comma delimited format used in spreadsheet applications
http://www.bom.gov.au/fwo/IDN60801/IDN60801.95716.axf

JavaScript Object Notation format (JSON) in row-major order
http://www.bom.gov.au/fwo/IDN60801/IDN60801.95716.json

Data quality

Most of these data are generated automatically and are frequently updated. Quality checks on data are not normally performed. It is possible for incorrect values to appear. Refer to information at About Latest Weather Observations and please check the disclaimer before using these data.